Time;durP1;ratioP1;P1;durP2;ratioP2;P2;SDS_P1;SDS_P2;PMS_P1;PMS_P2;Temp;Humidity;BMP_temperature;BMP_pressure;BME280_temperature;BME280_humidity;BME280_pressure;Samples;Min_cycle;Max_cycle;Signal;HPM_P1;HPM_P2
2023/03/04 00:00:47;;;;;;;21.02;10.30;;;4.00;49.50;;;;;;2360540;53;21300;-69
2023/03/04 00:03:14;;;;;;;21.40;9.77;;;4.00;49.50;;;;;;2357176;53;20923;-69
2023/03/04 00:05:40;;;;;;;22.95;11.15;;;4.00;49.60;;;;;;2470998;52;20950;-69
2023/03/04 00:08:06;;;;;;;19.42;9.23;;;3.90;49.50;;;;;;2360633;53;21478;-69
2023/03/04 00:10:33;;;;;;;23.52;10.70;;;3.90;49.50;;;;;;2369419;53;20950;-69
2023/03/04 00:12:59;;;;;;;22.27;11.15;;;3.90;49.50;;;;;;2621284;52;20902;-69
2023/03/04 00:15:25;;;;;;;23.73;10.73;;;3.90;49.50;;;;;;2370136;53;20954;-69
2023/03/04 00:17:52;;;;;;;21.62;10.35;;;3.90;49.60;;;;;;2348538;53;21042;-69
2023/03/04 00:20:18;;;;;;;19.35;9.40;;;3.80;49.50;;;;;;2371362;53;21405;-69
2023/03/04 00:22:45;;;;;;;21.55;9.10;;;3.80;49.50;;;;;;2346024;53;20926;-69
2023/03/04 00:25:11;;;;;;;23.52;10.38;;;3.80;49.60;;;;;;2369562;53;20934;-69
2023/03/04 00:27:37;;;;;;;21.50;10.02;;;3.80;49.60;;;;;;2389174;52;21357;-69
2023/03/04 00:30:05;;;;;;;21.20;9.70;;;3.70;49.50;;;;;;2369298;53;20982;-69
2023/03/04 00:32:31;;;;;;;25.45;11.40;;;3.70;49.60;;;;;;2369030;53;20970;-69
2023/03/04 00:34:57;;;;;;;17.35;8.98;;;3.70;49.60;;;;;;2370622;53;21018;-69
2023/03/04 00:37:23;;;;;;;20.52;9.50;;;3.70;49.60;;;;;;2372143;53;20994;-69
2023/03/04 00:39:50;;;;;;;25.15;11.45;;;3.70;49.60;;;;;;2378361;52;21274;-69
2023/03/04 00:42:16;;;;;;;20.00;10.10;;;3.60;50.10;;;;;;2371481;53;20979;-69
2023/03/04 00:44:42;;;;;;;20.90;10.38;;;3.60;49.50;;;;;;2369043;53;20981;-69
2023/03/04 00:47:08;;;;;;;20.15;9.07;;;3.60;49.50;;;;;;2372363;53;20930;-69
2023/03/04 00:49:36;;;;;;;19.02;8.93;;;3.60;49.60;;;;;;2368740;53;20965;-69
2023/03/04 00:52:02;;;;;;;19.42;9.50;;;3.50;49.50;;;;;;2370810;53;21296;-69
2023/03/04 00:54:29;;;;;;;19.80;9.38;;;3.50;49.50;;;;;;2621082;52;20966;-69
2023/03/04 00:56:55;;;;;;;17.05;8.50;;;3.50;49.50;;;;;;2393173;52;20970;-69
2023/03/04 00:59:21;;;;;;;20.12;8.68;;;3.50;49.50;;;;;;2504423;52;20921;-69
2023/03/04 01:01:47;;;;;;;25.33;11.40;;;3.40;49.50;;;;;;2380397;52;21842;-69
2023/03/04 01:04:14;;;;;;;19.65;9.35;;;3.40;49.50;;;;;;2368935;53;21581;-69
2023/03/04 01:06:40;;;;;;;21.30;10.45;;;3.40;49.50;;;;;;2370928;53;21371;-69
2023/03/04 01:09:07;;;;;;;28.05;11.65;;;3.30;49.40;;;;;;2471424;52;21588;-69
2023/03/04 01:11:33;;;;;;;22.08;10.45;;;3.30;49.50;;;;;;2344399;53;22453;-69
2023/03/04 01:13:59;;;;;;;19.17;9.63;;;3.30;49.50;;;;;;2587043;52;21079;-69
2023/03/04 01:16:25;;;;;;;25.27;11.77;;;3.30;49.50;;;;;;2342898;53;20991;-69
2023/03/04 01:18:52;;;;;;;21.40;10.20;;;3.20;49.50;;;;;;2434108;52;20960;-69
2023/03/04 01:21:18;;;;;;;23.98;10.80;;;3.20;49.50;;;;;;2341392;53;21358;-69
2023/03/04 01:23:44;;;;;;;20.90;10.00;;;3.20;49.60;;;;;;2353245;53;21105;-69
2023/03/04 01:26:10;;;;;;;21.45;9.82;;;3.20;49.60;;;;;;2362228;53;21430;-69
2023/03/04 01:28:37;;;;;;;22.40;10.63;;;3.10;49.50;;;;;;2346131;53;21432;-69
2023/03/04 01:31:03;;;;;;;22.10;10.73;;;3.10;49.50;;;;;;2341126;53;20957;-69
2023/03/04 01:33:30;;;;;;;23.38;11.68;;;3.10;49.60;;;;;;2358058;53;20917;-69
2023/03/04 01:35:57;;;;;;;23.05;10.98;;;3.10;49.60;;;;;;2351825;53;21344;-69
2023/03/04 01:38:23;;;;;;;26.67;12.80;;;3.00;49.60;;;;;;2348646;53;21337;-69
2023/03/04 01:40:50;;;;;;;24.00;11.20;;;3.00;49.60;;;;;;2340657;53;20989;-69
2023/03/04 01:43:24;;;;;;;30.42;13.85;;;3.00;49.60;;;;;;2354623;53;21044;-69
2023/03/04 01:45:50;;;;;;;26.33;11.60;;;3.00;49.70;;;;;;2343752;53;21064;-69
2023/03/04 01:48:18;;;;;;;28.87;13.30;;;3.00;49.60;;;;;;2366487;53;22533;-69
2023/03/04 01:50:44;;;;;;;28.62;12.88;;;2.90;49.60;;;;;;2364075;53;21787;-69
2023/03/04 01:53:22;;;;;;;23.83;11.63;;;2.90;49.60;;;;;;2430736;52;20956;-69
2023/03/04 01:55:48;;;;;;;24.25;11.40;;;2.90;49.70;;;;;;2365488;53;20968;-69
2023/03/04 01:58:14;;;;;;;24.45;11.45;;;2.90;49.60;;;;;;2444703;52;21439;-69
2023/03/04 02:00:41;;;;;;;24.73;11.45;;;2.80;49.60;;;;;;2364922;53;20977;-69
2023/03/04 02:03:12;;;;;;;24.80;12.00;;;2.80;49.60;;;;;;2368506;53;20886;-69
2023/03/04 02:05:43;;;;;;;25.12;11.32;;;2.80;49.70;;;;;;2363968;53;21359;-69
2023/03/04 02:08:09;;;;;;;22.60;10.82;;;2.80;49.60;;;;;;2429072;52;21056;-69
2023/03/04 02:10:35;;;;;;;20.45;9.60;;;2.70;49.60;;;;;;2386179;52;20930;-69
2023/03/04 02:13:02;;;;;;;26.35;11.60;;;2.70;49.60;;;;;;2447668;52;20966;-69
2023/03/04 02:15:28;;;;;;;29.20;13.38;;;2.70;49.60;;;;;;2363064;53;20980;-68
2023/03/04 02:17:55;;;;;;;26.73;12.18;;;2.70;49.70;;;;;;2363346;53;21490;-69
2023/03/04 02:20:40;;;;;;;23.00;10.50;;;2.70;49.70;;;;;;2368846;53;20938;-69
2023/03/04 02:24:59;;;;;;;25.45;12.48;;;2.60;49.70;;;;;;2373733;53;21456;-69
2023/03/04 02:27:25;;;;;;;21.67;10.18;;;2.60;49.90;;;;;;2368888;53;21391;-68
2023/03/04 02:29:52;;;;;;;20.27;9.65;;;2.60;49.60;;;;;;2363516;53;21457;-69
2023/03/04 02:32:18;;;;;;;18.85;9.13;;;2.60;49.60;;;;;;2369041;53;20930;-69
2023/03/04 02:34:50;;;;;;;21.58;10.05;;;2.50;49.60;;;;;;2370458;53;20978;-69
2023/03/04 02:37:17;;;;;;;17.95;9.20;;;2.50;49.60;;;;;;2370123;52;21792;-69
2023/03/04 02:39:44;;;;;;;17.67;8.32;;;2.50;49.70;;;;;;2363512;53;21001;-69
2023/03/04 02:42:10;;;;;;;21.75;10.57;;;2.50;49.70;;;;;;2366688;53;20906;-69
2023/03/04 02:44:38;;;;;;;22.50;10.35;;;2.40;49.70;;;;;;2367687;53;20914;-69
2023/03/04 02:47:06;;;;;;;25.20;11.25;;;2.40;49.70;;;;;;2363110;54;20966;-69
2023/03/04 02:49:33;;;;;;;24.67;11.52;;;2.40;49.80;;;;;;2376191;52;21443;-69
2023/03/04 02:52:13;;;;;;;17.10;9.50;;;2.40;49.80;;;;;;2367567;53;21482;-69
2023/03/04 02:54:39;;;;;;;22.17;9.40;;;2.40;49.80;;;;;;2364804;53;21315;-69
2023/03/04 02:57:07;;;;;;;23.17;9.88;;;2.30;49.70;;;;;;2522646;52;21036;-70
2023/03/04 02:59:34;;;;;;;21.80;9.35;;;2.30;49.70;;;;;;2595966;52;21683;-69
2023/03/04 03:02:00;;;;;;;25.27;11.07;;;2.30;49.70;;;;;;2393695;53;21251;-69
2023/03/04 03:04:27;;;;;;;20.65;9.77;;;2.30;49.70;;;;;;2369018;53;20997;-69
2023/03/04 03:06:53;;;;;;;22.17;10.35;;;2.20;49.70;;;;;;2367338;53;20918;-70
2023/03/04 03:09:19;;;;;;;20.98;9.50;;;2.20;49.70;;;;;;2367380;53;20918;-69
2023/03/04 03:11:45;;;;;;;22.73;10.30;;;2.20;49.70;;;;;;2366979;53;21034;-69
2023/03/04 03:14:12;;;;;;;21.48;8.95;;;2.20;49.70;;;;;;2619314;52;20949;-69
2023/03/04 03:16:38;;;;;;;25.88;11.95;;;2.20;49.80;;;;;;2367395;53;21423;-69
2023/03/04 03:19:04;;;;;;;20.90;10.48;;;2.20;49.80;;;;;;2369638;53;21069;-70
2023/03/04 03:21:31;;;;;;;19.50;9.75;;;2.10;49.80;;;;;;2367505;53;21029;-69
2023/03/04 03:23:57;;;;;;;21.00;10.38;;;2.10;49.80;;;;;;2370842;53;21499;-69
2023/03/04 03:26:23;;;;;;;24.20;10.52;;;2.10;49.80;;;;;;2359531;53;21506;-70
2023/03/04 03:28:49;;;;;;;21.55;10.35;;;2.10;49.80;;;;;;2367878;53;20894;-69
2023/03/04 03:31:15;;;;;;;27.20;11.57;;;2.10;49.80;;;;;;2363014;53;20913;-70
2023/03/04 03:33:42;;;;;;;22.02;10.40;;;2.10;49.80;;;;;;2479708;52;20970;-70
2023/03/04 03:36:08;;;;;;;21.62;10.20;;;2.10;49.80;;;;;;2368260;53;20958;-69
2023/03/04 03:38:35;;;;;;;21.10;10.15;;;2.00;49.80;;;;;;2368456;53;20883;-68
2023/03/04 03:41:02;;;;;;;20.70;10.18;;;2.00;49.80;;;;;;2620575;52;21379;-69
2023/03/04 03:43:28;;;;;;;20.35;9.65;;;2.00;49.80;;;;;;2368776;53;20969;-69
2023/03/04 03:45:54;;;;;;;25.83;11.95;;;2.00;49.80;;;;;;2587928;52;20978;-69
2023/03/04 03:48:20;;;;;;;23.05;11.10;;;1.90;49.80;;;;;;2368482;53;21673;-69
2023/03/04 03:50:47;;;;;;;25.35;11.55;;;1.90;49.80;;;;;;2370817;53;21317;-69
2023/03/04 03:53:13;;;;;;;22.23;10.25;;;1.90;49.90;;;;;;2432331;52;21049;-69
2023/03/04 03:55:39;;;;;;;26.60;11.93;;;1.90;49.90;;;;;;2365065;53;20937;-69
2023/03/04 03:58:05;;;;;;;23.55;10.98;;;1.90;49.90;;;;;;2521438;52;21277;-69
2023/03/04 04:00:32;;;;;;;20.42;9.50;;;1.90;49.90;;;;;;2368194;53;21540;-69
2023/03/04 04:02:58;;;;;;;26.37;11.55;;;1.90;49.90;;;;;;2363552;53;21348;-69
2023/03/04 04:05:24;;;;;;;19.35;9.38;;;1.80;49.80;;;;;;2370283;53;21083;-69
2023/03/04 04:07:51;;;;;;;22.85;9.82;;;1.80;49.90;;;;;;2362467;53;20910;-69
2023/03/04 04:10:20;;;;;;;25.23;11.45;;;1.80;49.80;;;;;;2371568;53;20938;-69
2023/03/04 04:12:46;;;;;;;29.67;12.48;;;1.80;49.90;;;;;;2375402;52;21365;-69
2023/03/04 04:15:12;;;;;;;23.20;10.73;;;1.80;49.90;;;;;;2369055;53;20928;-69
2023/03/04 04:17:39;;;;;;;21.92;11.07;;;1.70;49.90;;;;;;2368431;53;20994;-69
2023/03/04 04:20:06;;;;;;;25.20;11.48;;;1.70;49.90;;;;;;2368909;53;21379;-69
2023/03/04 04:22:32;;;;;;;20.10;9.77;;;1.80;50.00;;;;;;2381845;52;21402;-69
2023/03/04 04:24:59;;;;;;;28.30;12.63;;;1.70;50.00;;;;;;2368922;53;21081;-69
2023/03/04 04:27:28;;;;;;;21.77;10.52;;;1.70;49.90;;;;;;2368829;53;20990;-69
2023/03/04 04:29:54;;;;;;;22.15;10.52;;;1.70;50.00;;;;;;2375921;52;20906;-70
2023/03/04 04:32:20;;;;;;;25.12;12.43;;;1.70;50.00;;;;;;2372458;52;20966;-69
2023/03/04 04:34:46;;;;;;;22.13;10.65;;;1.60;49.90;;;;;;2368710;53;21217;-69
2023/03/04 04:37:13;;;;;;;21.42;9.65;;;1.70;50.00;;;;;;2364997;53;21000;-69
2023/03/04 04:39:39;;;;;;;21.98;10.50;;;1.60;49.90;;;;;;2367282;53;21348;-69
2023/03/04 04:42:05;;;;;;;22.40;10.00;;;1.60;49.90;;;;;;2364440;53;21326;-69
2023/03/04 04:44:31;;;;;;;21.80;10.25;;;1.60;50.00;;;;;;2397045;53;21427;-70
2023/03/04 04:46:58;;;;;;;23.85;11.12;;;1.60;49.90;;;;;;2366230;53;21032;-70
2023/03/04 04:49:24;;;;;;;25.25;10.82;;;1.60;50.00;;;;;;2365885;53;20946;-69
2023/03/04 04:51:50;;;;;;;21.73;9.30;;;1.60;50.00;;;;;;2370925;53;20941;-69
2023/03/04 04:54:16;;;;;;;23.90;9.63;;;1.50;49.90;;;;;;2368935;53;20926;-69
2023/03/04 04:56:43;;;;;;;24.37;11.23;;;1.50;49.90;;;;;;2365143;53;21136;-69
2023/03/04 04:59:09;;;;;;;18.45;8.57;;;1.50;49.90;;;;;;2367710;53;21038;-70
2023/03/04 05:01:35;;;;;;;25.37;11.50;;;1.50;50.00;;;;;;2402399;52;21541;-70
2023/03/04 05:04:02;;;;;;;23.92;11.25;;;1.50;49.90;;;;;;2413477;53;21054;-69
2023/03/04 05:06:28;;;;;;;19.95;9.32;;;1.50;50.00;;;;;;2370129;53;21079;-69
2023/03/04 05:08:54;;;;;;;21.08;9.27;;;1.40;49.90;;;;;;2361949;53;21376;-70
2023/03/04 05:11:20;;;;;;;24.87;11.00;;;1.40;49.90;;;;;;2370818;53;21317;-69
2023/03/04 05:13:50;;;;;;;20.62;8.95;;;1.40;49.90;;;;;;2409526;52;21371;-69
2023/03/04 05:16:16;;;;;;;20.58;10.48;;;1.40;50.00;;;;;;2368461;53;20957;-69
2023/03/04 05:18:43;;;;;;;23.83;11.23;;;1.40;50.00;;;;;;2368636;53;20913;-70
2023/03/04 05:21:09;;;;;;;20.65;9.43;;;1.30;49.90;;;;;;2371147;52;21465;-69
2023/03/04 05:23:37;;;;;;;21.95;9.32;;;1.30;50.00;;;;;;2364082;53;20973;-70
2023/03/04 05:26:03;;;;;;;19.65;9.05;;;1.30;50.10;;;;;;2396061;52;21292;-70
2023/03/04 05:28:29;;;;;;;17.17;8.48;;;1.30;50.10;;;;;;2363826;53;21383;-69
2023/03/04 05:30:55;;;;;;;20.35;9.43;;;1.30;50.10;;;;;;2419503;52;21017;-69
2023/03/04 05:33:22;;;;;;;18.05;8.80;;;1.30;50.10;;;;;;2419042;52;20958;-69
2023/03/04 05:35:48;;;;;;;19.73;9.38;;;1.30;50.10;;;;;;2475656;52;21808;-69
2023/03/04 05:38:16;;;;;;;16.98;7.72;;;1.30;50.20;;;;;;2445297;52;21260;-69
2023/03/04 05:40:42;;;;;;;17.42;9.25;;;1.30;50.10;;;;;;2366665;53;20974;-69
2023/03/04 05:43:08;;;;;;;23.20;11.12;;;1.20;50.00;;;;;;2366161;53;20975;-69
2023/03/04 05:45:34;;;;;;;26.02;11.07;;;1.20;50.00;;;;;;2366293;53;21120;-69
2023/03/04 05:48:01;;;;;;;19.15;9.95;;;1.20;50.10;;;;;;2391383;53;21621;-69
2023/03/04 05:50:28;;;;;;;22.58;10.02;;;1.20;50.10;;;;;;2616320;52;21010;-69
2023/03/04 05:52:54;;;;;;;22.33;10.07;;;1.20;50.10;;;;;;2375652;52;21415;-69
2023/03/04 05:55:20;;;;;;;21.10;9.00;;;1.20;50.10;;;;;;2368737;53;21364;-70
2023/03/04 05:57:47;;;;;;;24.70;10.73;;;1.20;50.10;;;;;;2369931;53;20938;-69
2023/03/04 06:00:14;;;;;;;17.35;8.23;;;1.20;50.10;;;;;;2620992;52;21291;-69
2023/03/04 06:02:40;;;;;;;19.25;8.68;;;1.20;50.10;;;;;;2375723;52;20918;-69
2023/03/04 06:05:07;;;;;;;19.40;9.43;;;1.20;50.10;;;;;;2375167;52;21312;-69
2023/03/04 06:07:34;;;;;;;18.77;8.07;;;1.20;50.10;;;;;;2370812;53;21383;-69
2023/03/04 06:10:00;;;;;;;22.62;10.07;;;1.20;50.10;;;;;;2361586;53;20990;-70
2023/03/04 06:12:27;;;;;;;20.25;9.98;;;1.10;50.10;;;;;;2371036;53;20951;-70
2023/03/04 06:14:54;;;;;;;24.08;11.07;;;1.10;50.10;;;;;;2576321;52;21626;-69
2023/03/04 06:17:20;;;;;;;18.12;9.15;;;1.10;50.10;;;;;;2368396;53;20998;-69
2023/03/04 06:19:46;;;;;;;19.75;8.80;;;1.10;50.20;;;;;;2378356;52;21001;-69
2023/03/04 06:22:12;;;;;;;17.67;7.70;;;1.10;50.20;;;;;;2368957;53;21376;-70
2023/03/04 06:24:39;;;;;;;19.90;9.10;;;1.10;50.20;;;;;;2369164;53;21334;-70
2023/03/04 06:27:05;;;;;;;17.65;8.10;;;1.10;50.20;;;;;;2369181;53;21380;-69
2023/03/04 06:29:31;;;;;;;18.80;8.05;;;1.10;50.30;;;;;;2620967;52;22423;-69
2023/03/04 06:31:57;;;;;;;16.67;8.10;;;1.10;50.30;;;;;;2420699;52;21018;-69
2023/03/04 06:34:24;;;;;;;20.80;9.70;;;1.10;50.30;;;;;;2365620;53;20929;-69
2023/03/04 06:36:50;;;;;;;21.48;10.43;;;1.10;50.50;;;;;;2369268;53;20913;-69
2023/03/04 06:39:16;;;;;;;19.33;9.50;;;1.10;50.60;;;;;;2368442;53;21074;-69
2023/03/04 06:41:42;;;;;;;19.17;8.95;;;1.10;50.70;;;;;;2368835;53;20946;-70
2023/03/04 06:44:09;;;;;;;18.70;8.65;;;1.10;50.80;;;;;;2620636;52;20903;-70
2023/03/04 06:46:35;;;;;;;18.12;7.75;;;1.10;50.90;;;;;;2375805;52;21026;-70
2023/03/04 06:49:01;;;;;;;21.87;9.93;;;1.10;50.90;;;;;;2369162;53;21521;-70
2023/03/04 06:51:28;;;;;;;19.98;8.45;;;1.20;51.10;;;;;;2393408;53;21626;-70
2023/03/04 06:53:54;;;;;;;24.23;11.55;;;1.20;51.20;;;;;;2368599;53;20964;-70
2023/03/04 06:56:20;;;;;;;26.58;11.65;;;1.20;51.30;;;;;;2395428;53;20910;-70
2023/03/04 06:58:47;;;;;;;25.58;10.45;;;1.30;51.40;;;;;;2370522;53;20953;-69
2023/03/04 07:01:18;;;;;;;25.25;12.00;;;1.30;51.50;;;;;;2362693;53;21331;-70
2023/03/04 07:03:44;;;;;;;26.40;12.48;;;1.40;51.70;;;;;;2374145;52;20934;-70
2023/03/04 07:06:11;;;;;;;21.25;11.20;;;1.50;51.80;;;;;;2371426;53;20971;-70
2023/03/04 07:08:37;;;;;;;28.08;12.93;;;1.50;51.90;;;;;;2369667;53;21475;-70
2023/03/04 07:11:04;;;;;;;21.67;10.48;;;1.60;52.00;;;;;;2376076;52;21400;-69
2023/03/04 07:13:30;;;;;;;26.40;12.07;;;1.60;52.10;;;;;;2367862;53;20923;-70
2023/03/04 07:15:58;;;;;;;28.87;12.20;;;1.70;52.20;;;;;;2362911;53;20977;-69
2023/03/04 07:18:24;;;;;;;28.30;11.85;;;1.80;52.30;;;;;;2368533;53;21460;-69
2023/03/04 07:20:52;;;;;;;29.20;12.63;;;1.90;52.50;;;;;;2381614;52;21466;-69
2023/03/04 07:23:18;;;;;;;29.48;12.55;;;1.90;52.50;;;;;;2369183;53;20966;-69
2023/03/04 07:25:44;;;;;;;26.87;12.63;;;2.00;52.70;;;;;;2366203;52;20917;-70
2023/03/04 07:28:11;;;;;;;28.55;12.30;;;2.10;52.70;;;;;;2371132;53;22066;-70
2023/03/04 07:30:37;;;;;;;25.23;10.45;;;2.20;52.80;;;;;;2371284;52;21462;-70
2023/03/04 07:33:03;;;;;;;26.15;10.85;;;2.30;52.90;;;;;;2573359;52;20967;-69
2023/03/04 07:35:30;;;;;;;26.37;11.07;;;2.40;53.00;;;;;;2366458;53;20997;-70
2023/03/04 07:37:56;;;;;;;24.83;11.18;;;2.50;53.00;;;;;;2365880;53;20919;-70
2023/03/04 07:40:23;;;;;;;27.73;11.52;;;2.50;53.00;;;;;;2367267;53;21416;-70
2023/03/04 07:42:50;;;;;;;24.02;10.63;;;2.70;53.20;;;;;;2365015;53;21324;-70
2023/03/04 07:45:16;;;;;;;28.42;12.13;;;2.80;53.20;;;;;;2370391;53;20982;-70
2023/03/04 07:47:46;;;;;;;30.77;13.05;;;2.80;53.20;;;;;;2371280;53;21053;-70
2023/03/04 07:50:12;;;;;;;27.77;12.25;;;2.90;53.30;;;;;;2347857;53;21022;-70
2023/03/04 07:52:39;;;;;;;27.55;11.23;;;3.00;53.30;;;;;;2372019;53;20882;-70
2023/03/04 07:55:06;;;;;;;28.98;12.10;;;3.10;53.30;;;;;;2366841;53;21516;-70
2023/03/04 07:57:33;;;;;;;29.35;12.00;;;3.20;53.40;;;;;;2346055;53;20918;-70
2023/03/04 07:59:59;;;;;;;28.95;11.88;;;3.20;53.30;;;;;;2480449;52;20963;-70
2023/03/04 08:02:25;;;;;;;29.63;11.95;;;3.30;53.40;;;;;;2369602;53;21015;-70
2023/03/04 08:04:51;;;;;;;31.85;13.07;;;3.40;53.40;;;;;;2520080;52;21428;-70
2023/03/04 08:07:18;;;;;;;25.48;11.27;;;3.50;53.50;;;;;;2353521;53;21878;-70
2023/03/04 08:09:44;;;;;;;31.87;12.63;;;3.60;53.60;;;;;;2366977;53;20998;-70
2023/03/04 08:12:10;;;;;;;32.83;13.02;;;3.60;53.50;;;;;;2372112;53;20923;-70
2023/03/04 08:14:37;;;;;;;30.10;12.23;;;3.70;53.60;;;;;;2455035;52;20947;-70
2023/03/04 08:17:03;;;;;;;34.28;13.88;;;3.80;53.50;;;;;;2372533;53;20998;-70
2023/03/04 08:19:29;;;;;;;30.83;11.60;;;3.80;53.50;;;;;;2370278;52;20950;-70
2023/03/04 08:21:56;;;;;;;29.98;12.27;;;3.90;53.50;;;;;;2418348;52;20963;-70
2023/03/04 08:24:23;;;;;;;33.13;11.93;;;4.00;53.50;;;;;;2422257;52;20962;-70
2023/03/04 08:26:49;;;;;;;31.50;13.18;;;4.00;53.40;;;;;;2394320;52;21481;-70
2023/03/04 08:29:17;;;;;;;29.23;12.00;;;4.10;53.50;;;;;;2367230;53;21050;-70
2023/03/04 08:31:45;;;;;;;25.27;10.00;;;4.10;53.40;;;;;;2366872;53;20988;-70
2023/03/04 08:34:14;;;;;;;75.60;22.90;;;4.20;53.40;;;;;;2367244;53;21403;-70
2023/03/04 08:36:41;;;;;;;44.20;16.33;;;4.30;53.50;;;;;;2370050;53;21351;-70
2023/03/04 08:39:07;;;;;;;38.28;14.52;;;4.30;53.60;;;;;;2368824;53;21300;-70
2023/03/04 08:41:34;;;;;;;29.02;12.75;;;4.40;53.60;;;;;;2367213;53;20992;-70
2023/03/04 08:44:00;;;;;;;29.85;12.52;;;4.40;53.60;;;;;;2614882;52;21730;-70
2023/03/04 08:46:26;;;;;;;35.30;13.85;;;4.50;53.60;;;;;;2369451;53;21501;-70
2023/03/04 08:48:53;;;;;;;31.58;13.30;;;4.60;53.50;;;;;;2363779;53;20898;-70
2023/03/04 08:51:19;;;;;;;28.40;12.18;;;4.60;53.50;;;;;;2370345;53;21035;-70
2023/03/04 08:53:45;;;;;;;28.05;11.20;;;4.60;53.40;;;;;;2368334;53;21448;-70
2023/03/04 08:56:11;;;;;;;27.87;11.85;;;4.70;53.40;;;;;;2372190;53;20979;-70
2023/03/04 08:58:38;;;;;;;28.90;12.00;;;4.80;53.50;;;;;;2364307;53;20969;-70
2023/03/04 09:01:06;;;;;;;31.77;13.68;;;4.80;53.40;;;;;;2372065;53;20942;-70
2023/03/04 09:03:32;;;;;;;35.40;13.70;;;4.90;53.60;;;;;;2361006;53;21007;-70
2023/03/04 09:06:00;;;;;;;28.42;12.77;;;4.90;53.70;;;;;;2395777;52;21343;-71
2023/03/04 09:08:27;;;;;;;27.30;11.88;;;5.00;53.70;;;;;;2371281;53;21722;-70
2023/03/04 09:10:53;;;;;;;30.88;13.82;;;5.00;53.60;;;;;;2368242;53;21515;-70
2023/03/04 09:13:20;;;;;;;31.17;13.25;;;5.10;53.60;;;;;;2363967;53;20945;-70
2023/03/04 09:15:50;;;;;;;26.27;11.32;;;5.10;53.50;;;;;;2368311;53;21229;-70
2023/03/04 09:18:17;;;;;;;28.17;13.30;;;5.20;53.50;;;;;;2371484;53;20982;-71
2023/03/04 09:20:43;;;;;;;28.70;12.90;;;5.20;53.40;;;;;;2519814;52;21428;-70
2023/03/04 09:23:09;;;;;;;25.40;11.60;;;5.30;53.30;;;;;;2392017;52;21016;-70
2023/03/04 09:25:36;;;;;;;28.27;12.10;;;5.30;53.20;;;;;;2384480;53;21611;-71
2023/03/04 09:28:03;;;;;;;29.30;13.32;;;5.40;53.30;;;;;;2357435;53;20997;-70
2023/03/04 09:30:29;;;;;;;26.65;12.40;;;5.40;53.30;;;;;;2367121;53;21443;-71
2023/03/04 09:32:56;;;;;;;25.73;11.27;;;5.40;53.50;;;;;;2366169;53;20924;-70
2023/03/04 09:35:22;;;;;;;25.75;11.32;;;5.50;53.60;;;;;;2432835;52;20922;-70
2023/03/04 09:37:49;;;;;;;23.52;11.12;;;5.50;53.70;;;;;;2368244;53;21807;-70
2023/03/04 09:40:20;;;;;;;28.15;12.40;;;5.60;53.60;;;;;;2571458;52;20923;-70
2023/03/04 09:42:49;;;;;;;26.02;11.50;;;5.70;53.80;;;;;;2368487;53;21002;-70
2023/03/04 09:45:17;;;;;;;23.40;11.02;;;5.80;54.00;;;;;;2369651;53;20998;-71
2023/03/04 09:47:43;;;;;;;28.67;10.75;;;5.80;54.00;;;;;;2371394;52;21413;-71
2023/03/04 09:50:11;;;;;;;23.70;10.50;;;5.90;54.10;;;;;;2364127;53;21058;-70
2023/03/04 09:53:22;;;;;;;24.55;11.27;;;6.00;54.20;;;;;;2385824;52;21563;-71
2023/03/04 09:55:51;;;;;;;26.37;11.88;;;6.10;54.50;;;;;;2365498;53;21145;-71
2023/03/04 09:58:56;;;;;;;25.42;11.52;;;6.30;54.40;;;;;;2372079;53;21376;-71
2023/03/04 10:02:02;;;;;;;23.20;10.80;;;6.40;54.70;;;;;;2484676;52;21384;-71
2023/03/04 10:04:40;;;;;;;25.00;12.20;;;6.50;54.50;;;;;;2364290;53;21557;-71
2023/03/04 10:07:26;;;;;;;23.60;11.43;;;6.60;54.20;;;;;;2369590;53;21047;-71
2023/03/04 10:12:51;;;;;;;22.77;11.48;;;6.80;54.20;;;;;;2431450;52;21052;-71
2023/03/04 10:15:27;;;;;;;22.65;10.60;;;6.90;54.40;;;;;;2342093;53;20968;-71
2023/03/04 10:17:59;;;;;;;24.50;11.57;;;7.00;54.10;;;;;;2347737;53;21525;-71
2023/03/04 10:20:29;;;;;;;21.13;10.67;;;7.00;54.00;;;;;;2352663;53;21016;-71
2023/03/04 10:22:57;;;;;;;25.27;11.55;;;7.10;54.10;;;;;;2443442;52;20913;-71
2023/03/04 10:25:31;;;;;;;22.25;11.60;;;7.20;54.30;;;;;;2335096;54;21541;-70
2023/03/04 10:28:02;;;;;;;26.77;11.70;;;7.30;54.40;;;;;;2561894;52;21419;-71
2023/03/04 10:34:22;;;;;;;28.80;13.77;;;7.40;54.40;;;;;;2320348;54;20996;-71
2023/03/04 10:37:22;;;;;;;20.83;9.48;;;7.60;54.50;;;;;;2352824;53;21301;-71
2023/03/04 10:39:49;;;;;;;22.85;11.50;;;7.80;54.50;;;;;;2371195;53;21328;-71
2023/03/04 10:42:28;;;;;;;22.37;11.85;;;7.90;54.50;;;;;;2369996;53;21447;-72
2023/03/04 10:44:56;;;;;;;24.70;12.20;;;8.00;54.50;;;;;;2429678;52;20999;-71
2023/03/04 10:47:24;;;;;;;21.70;10.80;;;8.10;54.40;;;;;;2442942;52;21041;-71
2023/03/04 10:49:52;;;;;;;24.35;12.27;;;8.20;54.50;;;;;;2407156;52;21446;-71
2023/03/04 10:52:34;;;;;;;23.45;12.45;;;8.40;54.60;;;;;;2340839;53;20944;-72
2023/03/04 10:55:03;;;;;;;21.87;11.12;;;8.50;54.60;;;;;;2561485;52;21619;-72
2023/03/04 10:57:36;;;;;;;22.75;11.02;;;8.60;54.30;;;;;;2343524;53;21025;-72
2023/03/04 11:00:26;;;;;;;18.95;10.35;;;8.70;54.20;;;;;;2342095;53;20936;-71
2023/03/04 11:03:17;;;;;;;21.87;11.57;;;8.80;54.30;;;;;;2341616;53;20996;-72
2023/03/04 11:05:43;;;;;;;24.10;12.77;;;8.90;54.20;;;;;;2344129;53;20925;-72
2023/03/04 11:08:18;;;;;;;27.15;13.85;;;9.00;53.90;;;;;;2341723;53;20976;-71
2023/03/04 11:10:44;;;;;;;26.42;15.07;;;9.10;53.40;;;;;;2342838;53;21008;-71
2023/03/04 11:13:24;;;;;;;25.98;14.30;;;9.10;53.10;;;;;;2341466;53;21374;-72
2023/03/04 11:16:02;;;;;;;29.50;15.57;;;9.20;53.10;;;;;;2341343;53;21493;-71
2023/03/04 11:19:31;;;;;;;29.70;15.57;;;9.30;53.00;;;;;;2340700;53;20993;-72
2023/03/04 11:21:57;;;;;;;32.17;18.00;;;9.30;52.90;;;;;;2339845;53;21001;-72
2023/03/04 11:24:28;;;;;;;32.15;18.00;;;9.40;52.80;;;;;;2397341;52;21084;-76
2023/03/04 11:27:07;;;;;;;36.67;20.90;;;9.40;52.50;;;;;;2357849;53;21058;-74
2023/03/04 11:29:59;;;;;;;36.42;19.08;;;9.50;52.30;;;;;;2621069;52;20902;-76
2023/03/04 11:32:31;;;;;;;37.78;18.40;;;9.50;52.00;;;;;;2369851;53;21604;-76
2023/03/04 11:35:00;;;;;;;;;;;9.50;52.10;;;;;;2374983;53;20970;-76
2023/03/04 11:37:44;;;;;;;29.55;16.37;;;9.60;52.20;;;;;;2369990;53;20354;-76
2023/03/04 11:40:56;;;;;;;28.02;15.38;;;9.60;52.10;;;;;;2385621;52;21104;-76
2023/03/04 11:43:36;;;;;;;28.73;14.95;;;9.70;52.00;;;;;;2496311;52;20906;-76
2023/03/04 11:46:37;;;;;;;34.25;18.12;;;9.70;52.20;;;;;;2416984;52;21857;-76
2023/03/04 11:50:21;;;;;;;30.17;16.45;;;9.80;51.90;;;;;;2480846;52;21010;-75
2023/03/04 11:52:59;;;;;;;28.00;14.55;;;9.80;51.80;;;;;;2341413;53;21183;-76
2023/03/04 11:55:33;;;;;;;29.00;14.87;;;9.90;52.10;;;;;;2353232;53;21237;-76
2023/03/04 11:58:37;;;;;;;32.72;16.67;;;10.00;51.20;;;;;;2346982;53;21450;-76
2023/03/04 12:09:43;;;;;;;35.17;17.60;;;10.10;51.10;;;;;;2490820;52;21012;-75
2023/03/04 12:13:04;;;;;;;25.75;13.77;;;10.20;51.00;;;;;;2336929;54;20964;-74
2023/03/04 12:16:27;;;;;;;27.73;15.25;;;10.40;50.60;;;;;;2358739;52;20944;-74
2023/03/04 12:19:15;;;;;;;27.45;15.20;;;10.40;50.70;;;;;;2341468;53;21490;-74
2023/03/04 12:26:48;;;;;;;30.40;16.62;;;10.40;50.70;;;;;;2341414;53;21010;-75
2023/03/04 12:29:25;;;;;;;29.45;16.15;;;10.60;50.70;;;;;;2342150;53;20974;-75
2023/03/04 12:32:28;;;;;;;30.85;15.90;;;10.60;50.40;;;;;;2373792;52;20980;-75
2023/03/04 12:37:35;;;;;;;30.55;16.33;;;10.60;49.80;;;;;;2341253;54;20996;-75
2023/03/04 12:40:31;;;;;;;31.02;16.40;;;10.60;50.00;;;;;;2358059;52;20945;-73
2023/03/04 12:43:47;;;;;;;29.87;16.27;;;10.60;49.50;;;;;;2340766;53;20954;-73
2023/03/04 12:49:16;;;;;;;36.63;17.80;;;10.60;49.70;;;;;;2346493;52;21076;-72
2023/03/04 12:51:52;;;;;;;28.75;15.43;;;10.50;49.50;;;;;;2361369;53;20938;-72
2023/03/04 12:54:40;;;;;;;29.87;16.77;;;10.50;49.50;;;;;;2359603;53;20923;-72
2023/03/04 12:57:30;;;;;;;31.25;16.40;;;10.50;49.50;;;;;;2349153;53;20952;-72
2023/03/04 13:00:41;;;;;;;27.90;15.38;;;10.50;49.50;;;;;;2366169;53;21021;-72
2023/03/04 13:05:03;;;;;;;31.25;16.08;;;10.50;49.40;;;;;;2349166;53;20965;-71
2023/03/04 13:08:24;;;;;;;30.10;15.82;;;10.60;49.50;;;;;;2356563;53;20946;-72
2023/03/04 13:10:51;;;;;;;29.50;15.68;;;10.60;49.20;;;;;;2621700;52;20922;-72
2023/03/04 13:13:37;;;;;;;30.80;16.00;;;10.60;49.30;;;;;;2352417;53;20962;-72
2023/03/04 13:19:45;;;;;;;29.83;15.38;;;10.60;48.90;;;;;;2455582;52;20946;-72
2023/03/04 13:24:49;;;;;;;26.10;14.45;;;10.60;49.10;;;;;;2349673;53;1346341;-72
2023/03/04 13:27:47;;;;;;;31.42;16.48;;;10.60;49.10;;;;;;2372001;53;20946;-72
2023/03/04 13:37:03;;;;;;;30.70;15.73;;;10.60;48.70;;;;;;2368729;53;20962;-72